sensor_id;sensor_type;location;lat;lon;timestamp;temperature;humidity
70826;SHT31;58446;41.490;22.098;2023-03-11T00:00:59;13.72;77.25
70826;SHT31;58446;41.490;22.098;2023-03-11T00:03:25;13.74;77.43
70826;SHT31;58446;41.490;22.098;2023-03-11T00:05:54;13.82;77.14
70826;SHT31;58446;41.490;22.098;2023-03-11T00:08:24;13.77;77.43
70826;SHT31;58446;41.490;22.098;2023-03-11T00:10:53;13.75;77.79
70826;SHT31;58446;41.490;22.098;2023-03-11T00:13:19;13.74;77.45
70826;SHT31;58446;41.490;22.098;2023-03-11T00:15:47;13.64;78.50
70826;SHT31;58446;41.490;22.098;2023-03-11T00:18:14;13.74;77.38
70826;SHT31;58446;41.490;22.098;2023-03-11T00:20:42;13.77;77.25
70826;SHT31;58446;41.490;22.098;2023-03-11T00:23:11;13.59;77.71
70826;SHT31;58446;41.490;22.098;2023-03-11T00:25:37;13.27;79.13
70826;SHT31;58446;41.490;22.098;2023-03-11T00:28:05;13.14;79.39
70826;SHT31;58446;41.490;22.098;2023-03-11T00:30:35;13.24;77.40
70826;SHT31;58446;41.490;22.098;2023-03-11T00:33:01;13.08;78.38
70826;SHT31;58446;41.490;22.098;2023-03-11T00:35:30;13.26;78.23
70826;SHT31;58446;41.490;22.098;2023-03-11T00:37:58;13.28;76.23
70826;SHT31;58446;41.490;22.098;2023-03-11T00:40:28;13.40;76.34
70826;SHT31;58446;41.490;22.098;2023-03-11T00:42:54;13.57;74.94
70826;SHT31;58446;41.490;22.098;2023-03-11T00:45:20;13.58;72.78
70826;SHT31;58446;41.490;22.098;2023-03-11T00:47:45;13.59;71.33
70826;SHT31;58446;41.490;22.098;2023-03-11T00:50:20;13.53;69.59
70826;SHT31;58446;41.490;22.098;2023-03-11T00:52:47;13.54;70.90
70826;SHT31;58446;41.490;22.098;2023-03-11T00:55:16;13.50;69.51
70826;SHT31;58446;41.490;22.098;2023-03-11T00:57:42;13.40;69.64
70826;SHT31;58446;41.490;22.098;2023-03-11T01:00:12;13.41;68.50
70826;SHT31;58446;41.490;22.098;2023-03-11T01:02:38;13.38;68.44
70826;SHT31;58446;41.490;22.098;2023-03-11T01:05:05;13.34;68.43
70826;SHT31;58446;41.490;22.098;2023-03-11T01:07:31;13.44;70.89
70826;SHT31;58446;41.490;22.098;2023-03-11T01:09:58;13.53;71.05
70826;SHT31;58446;41.490;22.098;2023-03-11T01:12:24;13.59;71.27
70826;SHT31;58446;41.490;22.098;2023-03-11T01:14:49;13.57;71.51
70826;SHT31;58446;41.490;22.098;2023-03-11T01:17:15;13.50;72.49
70826;SHT31;58446;41.490;22.098;2023-03-11T01:19:41;13.38;73.10
70826;SHT31;58446;41.490;22.098;2023-03-11T01:22:06;13.34;73.28
70826;SHT31;58446;41.490;22.098;2023-03-11T01:24:32;13.23;72.97
70826;SHT31;58446;41.490;22.098;2023-03-11T01:26:58;13.28;73.64
70826;SHT31;58446;41.490;22.098;2023-03-11T01:29:23;13.13;74.06
70826;SHT31;58446;41.490;22.098;2023-03-11T01:31:49;13.08;74.47
70826;SHT31;58446;41.490;22.098;2023-03-11T01:34:15;13.04;74.41
70826;SHT31;58446;41.490;22.098;2023-03-11T01:36:40;13.11;74.54
70826;SHT31;58446;41.490;22.098;2023-03-11T01:39:06;12.89;74.22
70826;SHT31;58446;41.490;22.098;2023-03-11T01:41:32;12.45;74.65
70826;SHT31;58446;41.490;22.098;2023-03-11T01:43:57;12.35;74.91
70826;SHT31;58446;41.490;22.098;2023-03-11T01:49:11;12.21;73.88
70826;SHT31;58446;41.490;22.098;2023-03-11T01:51:43;12.39;74.51
70826;SHT31;58446;41.490;22.098;2023-03-11T01:54:16;12.63;73.74
70826;SHT31;58446;41.490;22.098;2023-03-11T01:56:43;12.77;70.72
70826;SHT31;58446;41.490;22.098;2023-03-11T01:59:12;13.02;73.03
70826;SHT31;58446;41.490;22.098;2023-03-11T02:01:44;13.00;72.68
70826;SHT31;58446;41.490;22.098;2023-03-11T02:04:13;12.97;73.11
70826;SHT31;58446;41.490;22.098;2023-03-11T02:06:40;12.90;73.41
70826;SHT31;58446;41.490;22.098;2023-03-11T02:09:05;12.60;73.47
70826;SHT31;58446;41.490;22.098;2023-03-11T02:11:31;12.44;73.89
70826;SHT31;58446;41.490;22.098;2023-03-11T02:14:00;12.24;74.22
70826;SHT31;58446;41.490;22.098;2023-03-11T02:16:26;12.49;69.42
70826;SHT31;58446;41.490;22.098;2023-03-11T02:18:52;12.82;65.23
70826;SHT31;58446;41.490;22.098;2023-03-11T02:21:24;13.16;62.39
70826;SHT31;58446;41.490;22.098;2023-03-11T02:23:53;13.24;62.53
70826;SHT31;58446;41.490;22.098;2023-03-11T02:26:34;13.27;62.47
70826;SHT31;58446;41.490;22.098;2023-03-11T02:29:04;13.38;60.86
70826;SHT31;58446;41.490;22.098;2023-03-11T02:31:32;13.44;60.67
70826;SHT31;58446;41.490;22.098;2023-03-11T02:34:01;13.41;61.19
70826;SHT31;58446;41.490;22.098;2023-03-11T02:36:39;13.36;62.60
70826;SHT31;58446;41.490;22.098;2023-03-11T02:39:06;13.21;65.28
70826;SHT31;58446;41.490;22.098;2023-03-11T02:41:37;13.23;65.71
70826;SHT31;58446;41.490;22.098;2023-03-11T02:44:05;13.11;66.61
70826;SHT31;58446;41.490;22.098;2023-03-11T02:46:34;13.14;66.73
70826;SHT31;58446;41.490;22.098;2023-03-11T02:49:01;13.11;67.07
70826;SHT31;58446;41.490;22.098;2023-03-11T02:51:27;13.11;66.40
70826;SHT31;58446;41.490;22.098;2023-03-11T02:53:56;13.10;66.89
70826;SHT31;58446;41.490;22.098;2023-03-11T02:56:22;13.14;66.60
70826;SHT31;58446;41.490;22.098;2023-03-11T02:58:48;12.99;64.53
70826;SHT31;58446;41.490;22.098;2023-03-11T03:01:13;13.06;63.86
70826;SHT31;58446;41.490;22.098;2023-03-11T03:03:39;13.07;66.61
70826;SHT31;58446;41.490;22.098;2023-03-11T03:06:05;13.07;66.65
70826;SHT31;58446;41.490;22.098;2023-03-11T03:08:31;12.90;67.54
70826;SHT31;58446;41.490;22.098;2023-03-11T03:10:57;12.90;68.41
70826;SHT31;58446;41.490;22.098;2023-03-11T03:13:25;12.96;68.15
70826;SHT31;58446;41.490;22.098;2023-03-11T03:15:50;12.96;68.18
70826;SHT31;58446;41.490;22.098;2023-03-11T03:18:16;12.63;68.75
70826;SHT31;58446;41.490;22.098;2023-03-11T03:20:42;12.41;70.05
70826;SHT31;58446;41.490;22.098;2023-03-11T03:23:08;12.50;70.41
70826;SHT31;58446;41.490;22.098;2023-03-11T03:25:33;12.38;69.05
70826;SHT31;58446;41.490;22.098;2023-03-11T03:27:59;12.10;68.62
70826;SHT31;58446;41.490;22.098;2023-03-11T03:30:25;12.32;70.91
70826;SHT31;58446;41.490;22.098;2023-03-11T03:32:51;12.60;69.94
70826;SHT31;58446;41.490;22.098;2023-03-11T03:35:16;12.46;70.64
70826;SHT31;58446;41.490;22.098;2023-03-11T03:37:42;12.41;70.15
70826;SHT31;58446;41.490;22.098;2023-03-11T03:40:08;12.36;71.00
70826;SHT31;58446;41.490;22.098;2023-03-11T03:42:35;12.53;70.23
70826;SHT31;58446;41.490;22.098;2023-03-11T03:45:03;12.36;69.89
70826;SHT31;58446;41.490;22.098;2023-03-11T03:47:31;12.66;70.30
70826;SHT31;58446;41.490;22.098;2023-03-11T03:49:56;11.98;71.89
70826;SHT31;58446;41.490;22.098;2023-03-11T03:52:22;12.11;72.12
70826;SHT31;58446;41.490;22.098;2023-03-11T03:54:48;12.31;70.36
70826;SHT31;58446;41.490;22.098;2023-03-11T03:57:13;12.31;71.33
70826;SHT31;58446;41.490;22.098;2023-03-11T03:59:39;12.24;71.35
70826;SHT31;58446;41.490;22.098;2023-03-11T04:02:04;12.45;70.80
70826;SHT31;58446;41.490;22.098;2023-03-11T04:04:31;12.13;71.21
70826;SHT31;58446;41.490;22.098;2023-03-11T04:06:56;11.90;71.70
70826;SHT31;58446;41.490;22.098;2023-03-11T04:09:22;12.28;71.58
70826;SHT31;58446;41.490;22.098;2023-03-11T04:11:47;12.48;70.43
70826;SHT31;58446;41.490;22.098;2023-03-11T04:14:13;12.38;71.40
70826;SHT31;58446;41.490;22.098;2023-03-11T04:16:39;12.32;71.21
70826;SHT31;58446;41.490;22.098;2023-03-11T04:19:04;11.90;70.81
70826;SHT31;58446;41.490;22.098;2023-03-11T04:21:31;12.20;71.48
70826;SHT31;58446;41.490;22.098;2023-03-11T04:23:57;12.14;70.95
70826;SHT31;58446;41.490;22.098;2023-03-11T04:26:22;11.35;72.97
70826;SHT31;58446;41.490;22.098;2023-03-11T04:28:48;11.97;72.25
70826;SHT31;58446;41.490;22.098;2023-03-11T04:31:14;12.13;71.35
70826;SHT31;58446;41.490;22.098;2023-03-11T04:33:39;11.76;71.79
70826;SHT31;58446;41.490;22.098;2023-03-11T04:36:06;11.66;71.43
70826;SHT31;58446;41.490;22.098;2023-03-11T04:38:33;11.70;72.52
70826;SHT31;58446;41.490;22.098;2023-03-11T04:41:00;12.05;71.76
70826;SHT31;58446;41.490;22.098;2023-03-11T04:43:26;12.14;71.06
70826;SHT31;58446;41.490;22.098;2023-03-11T04:45:52;11.77;70.89
70826;SHT31;58446;41.490;22.098;2023-03-11T04:48:17;11.40;73.49
70826;SHT31;58446;41.490;22.098;2023-03-11T04:50:43;11.84;71.78
70826;SHT31;58446;41.490;22.098;2023-03-11T04:53:09;11.94;71.25
70826;SHT31;58446;41.490;22.098;2023-03-11T04:55:34;11.80;70.68
70826;SHT31;58446;41.490;22.098;2023-03-11T04:58:00;11.09;71.37
70826;SHT31;58446;41.490;22.098;2023-03-11T05:00:26;11.11;72.16
70826;SHT31;58446;41.490;22.098;2023-03-11T05:02:51;11.04;72.91
70826;SHT31;58446;41.490;22.098;2023-03-11T05:05:17;11.43;72.42
70826;SHT31;58446;41.490;22.098;2023-03-11T05:07:44;11.60;71.58
70826;SHT31;58446;41.490;22.098;2023-03-11T05:10:10;11.55;71.56
70826;SHT31;58446;41.490;22.098;2023-03-11T05:12:36;11.69;71.19
70826;SHT31;58446;41.490;22.098;2023-03-11T05:15:02;12.21;69.23
70826;SHT31;58446;41.490;22.098;2023-03-11T05:17:28;12.31;68.62
70826;SHT31;58446;41.490;22.098;2023-03-11T05:19:53;11.94;69.20
70826;SHT31;58446;41.490;22.098;2023-03-11T05:22:19;12.39;68.70
70826;SHT31;58446;41.490;22.098;2023-03-11T05:24:46;12.02;68.98
70826;SHT31;58446;41.490;22.098;2023-03-11T05:27:12;12.18;69.44
70826;SHT31;58446;41.490;22.098;2023-03-11T05:29:38;12.42;68.15
70826;SHT31;58446;41.490;22.098;2023-03-11T05:32:04;12.83;67.66
70826;SHT31;58446;41.490;22.098;2023-03-11T05:34:30;13.58;64.49
70826;SHT31;58446;41.490;22.098;2023-03-11T05:36:55;14.78;61.68
70826;SHT31;58446;41.490;22.098;2023-03-11T05:39:21;15.01;60.65
70826;SHT31;58446;41.490;22.098;2023-03-11T05:41:46;16.03;58.17
70826;SHT31;58446;41.490;22.098;2023-03-11T05:44:12;16.21;55.95
70826;SHT31;58446;41.490;22.098;2023-03-11T05:46:38;16.88;56.13
70826;SHT31;58446;41.490;22.098;2023-03-11T05:49:03;17.15;54.41
70826;SHT31;58446;41.490;22.098;2023-03-11T05:51:29;16.82;54.96
70826;SHT31;58446;41.490;22.098;2023-03-11T05:53:55;17.09;54.61
70826;SHT31;58446;41.490;22.098;2023-03-11T05:56:21;17.29;54.32
70826;SHT31;58446;41.490;22.098;2023-03-11T05:58:48;16.83;54.95
70826;SHT31;58446;41.490;22.098;2023-03-11T06:01:16;16.31;55.90
70826;SHT31;58446;41.490;22.098;2023-03-11T06:03:42;15.09;59.24
70826;SHT31;58446;41.490;22.098;2023-03-11T06:06:10;14.22;61.67
70826;SHT31;58446;41.490;22.098;2023-03-11T06:08:36;13.88;63.95
70826;SHT31;58446;41.490;22.098;2023-03-11T06:11:03;13.55;64.92
70826;SHT31;58446;41.490;22.098;2023-03-11T06:13:29;13.30;65.54
70826;SHT31;58446;41.490;22.098;2023-03-11T06:15:55;13.31;64.37
70826;SHT31;58446;41.490;22.098;2023-03-11T06:18:21;14.12;62.62
70826;SHT31;58446;41.490;22.098;2023-03-11T06:20:46;14.01;63.14
70826;SHT31;58446;41.490;22.098;2023-03-11T06:23:12;14.40;61.76
70826;SHT31;58446;41.490;22.098;2023-03-11T06:25:37;14.68;60.46
70826;SHT31;58446;41.490;22.098;2023-03-11T06:28:03;14.94;59.96
70826;SHT31;58446;41.490;22.098;2023-03-11T06:30:29;15.35;60.03
70826;SHT31;58446;41.490;22.098;2023-03-11T06:32:55;15.91;59.48
70826;SHT31;58446;41.490;22.098;2023-03-11T06:35:20;16.25;58.89
70826;SHT31;58446;41.490;22.098;2023-03-11T06:37:46;16.48;57.82
70826;SHT31;58446;41.490;22.098;2023-03-11T06:40:12;16.90;56.30
70826;SHT31;58446;41.490;22.098;2023-03-11T06:42:38;17.03;55.19
70826;SHT31;58446;41.490;22.098;2023-03-11T06:45:04;16.64;56.32
70826;SHT31;58446;41.490;22.098;2023-03-11T06:47:30;16.79;57.38
70826;SHT31;58446;41.490;22.098;2023-03-11T06:49:56;17.17;56.84
70826;SHT31;58446;41.490;22.098;2023-03-11T06:52:22;17.41;56.68
70826;SHT31;58446;41.490;22.098;2023-03-11T06:54:48;17.43;56.07
70826;SHT31;58446;41.490;22.098;2023-03-11T06:57:15;17.30;56.01
70826;SHT31;58446;41.490;22.098;2023-03-11T06:59:41;17.07;57.56
70826;SHT31;58446;41.490;22.098;2023-03-11T07:02:09;16.98;57.90
70826;SHT31;58446;41.490;22.098;2023-03-11T07:04:36;16.59;58.62
70826;SHT31;58446;41.490;22.098;2023-03-11T07:07:02;16.54;58.82
70826;SHT31;58446;41.490;22.098;2023-03-11T07:09:27;16.41;58.72
70826;SHT31;58446;41.490;22.098;2023-03-11T07:11:53;16.51;59.24
70826;SHT31;58446;41.490;22.098;2023-03-11T07:14:20;16.71;59.37
70826;SHT31;58446;41.490;22.098;2023-03-11T07:16:45;16.92;59.16
70826;SHT31;58446;41.490;22.098;2023-03-11T07:19:12;16.90;59.14
70826;SHT31;58446;41.490;22.098;2023-03-11T07:21:38;17.16;57.18
70826;SHT31;58446;41.490;22.098;2023-03-11T07:24:05;17.29;56.98
70826;SHT31;58446;41.490;22.098;2023-03-11T07:26:32;17.47;57.82
70826;SHT31;58446;41.490;22.098;2023-03-11T07:28:59;17.64;57.46
70826;SHT31;58446;41.490;22.098;2023-03-11T07:31:27;17.74;57.64
70826;SHT31;58446;41.490;22.098;2023-03-11T07:33:53;17.91;56.15
70826;SHT31;58446;41.490;22.098;2023-03-11T07:36:21;17.99;55.79
70826;SHT31;58446;41.490;22.098;2023-03-11T07:38:47;18.15;55.18
70826;SHT31;58446;41.490;22.098;2023-03-11T07:41:14;18.40;54.41
70826;SHT31;58446;41.490;22.098;2023-03-11T07:43:41;18.76;53.35
70826;SHT31;58446;41.490;22.098;2023-03-11T07:46:10;18.96;51.64
70826;SHT31;58446;41.490;22.098;2023-03-11T07:48:37;19.11;51.45
70826;SHT31;58446;41.490;22.098;2023-03-11T07:51:06;19.35;50.16
70826;SHT31;58446;41.490;22.098;2023-03-11T07:53:33;19.17;50.30
70826;SHT31;58446;41.490;22.098;2023-03-11T07:55:59;18.93;50.45
70826;SHT31;58446;41.490;22.098;2023-03-11T07:58:25;18.70;51.46
70826;SHT31;58446;41.490;22.098;2023-03-11T08:00:51;18.38;52.84
70826;SHT31;58446;41.490;22.098;2023-03-11T08:03:19;18.15;52.87
70826;SHT31;58446;41.490;22.098;2023-03-11T08:05:44;17.79;54.35
70826;SHT31;58446;41.490;22.098;2023-03-11T08:08:10;17.67;55.27
70826;SHT31;58446;41.490;22.098;2023-03-11T08:10:36;17.64;55.13
70826;SHT31;58446;41.490;22.098;2023-03-11T08:13:02;17.89;54.76
70826;SHT31;58446;41.490;22.098;2023-03-11T08:15:27;18.08;53.80
70826;SHT31;58446;41.490;22.098;2023-03-11T08:17:53;17.92;51.48
70826;SHT31;58446;41.490;22.098;2023-03-11T08:20:19;17.70;52.34
70826;SHT31;58446;41.490;22.098;2023-03-11T08:22:44;17.50;51.60
70826;SHT31;58446;41.490;22.098;2023-03-11T08:25:10;17.29;51.60
70826;SHT31;58446;41.490;22.098;2023-03-11T08:27:36;17.29;52.20
70826;SHT31;58446;41.490;22.098;2023-03-11T08:30:04;17.19;52.39
70826;SHT31;58446;41.490;22.098;2023-03-11T08:32:30;17.03;52.75
70826;SHT31;58446;41.490;22.098;2023-03-11T08:34:56;16.95;52.77
70826;SHT31;58446;41.490;22.098;2023-03-11T08:37:22;16.69;53.95
70826;SHT31;58446;41.490;22.098;2023-03-11T08:39:48;16.64;53.99
70826;SHT31;58446;41.490;22.098;2023-03-11T08:42:15;16.71;53.24
70826;SHT31;58446;41.490;22.098;2023-03-11T08:44:41;16.62;54.06
70826;SHT31;58446;41.490;22.098;2023-03-11T08:47:07;16.55;54.37
70826;SHT31;58446;41.490;22.098;2023-03-11T08:49:33;16.35;55.78
70826;SHT31;58446;41.490;22.098;2023-03-11T08:52:00;16.37;55.57
70826;SHT31;58446;41.490;22.098;2023-03-11T08:54:26;16.40;55.70
70826;SHT31;58446;41.490;22.098;2023-03-11T08:56:52;16.67;56.09
70826;SHT31;58446;41.490;22.098;2023-03-11T08:59:17;17.19;53.82
70826;SHT31;58446;41.490;22.098;2023-03-11T09:01:43;17.31;54.54
70826;SHT31;58446;41.490;22.098;2023-03-11T09:04:09;17.34;52.48
70826;SHT31;58446;41.490;22.098;2023-03-11T09:06:34;17.51;52.04
70826;SHT31;58446;41.490;22.098;2023-03-11T09:09:00;17.75;52.12
70826;SHT31;58446;41.490;22.098;2023-03-11T09:11:26;17.92;51.62
70826;SHT31;58446;41.490;22.098;2023-03-11T09:13:51;18.09;52.82
70826;SHT31;58446;41.490;22.098;2023-03-11T09:16:21;18.16;51.82
70826;SHT31;58446;41.490;22.098;2023-03-11T09:18:47;18.08;51.13
70826;SHT31;58446;41.490;22.098;2023-03-11T09:21:13;17.92;53.41
70826;SHT31;58446;41.490;22.098;2023-03-11T09:23:39;17.91;52.13
70826;SHT31;58446;41.490;22.098;2023-03-11T09:26:05;17.85;51.74
70826;SHT31;58446;41.490;22.098;2023-03-11T09:28:30;17.71;51.68
70826;SHT31;58446;41.490;22.098;2023-03-11T09:30:56;17.82;51.02
70826;SHT31;58446;41.490;22.098;2023-03-11T09:33:22;17.97;50.66
70826;SHT31;58446;41.490;22.098;2023-03-11T09:35:47;17.73;51.02
70826;SHT31;58446;41.490;22.098;2023-03-11T09:38:13;17.66;50.53
70826;SHT31;58446;41.490;22.098;2023-03-11T09:41:03;17.75;49.66
70826;SHT31;58446;41.490;22.098;2023-03-11T09:46:29;18.25;52.53
70826;SHT31;58446;41.490;22.098;2023-03-11T09:51:43;19.18;48.79
70826;SHT31;58446;41.490;22.098;2023-03-11T09:54:11;19.54;48.23
70826;SHT31;58446;41.490;22.098;2023-03-11T09:56:38;19.72;49.79
70826;SHT31;58446;41.490;22.098;2023-03-11T09:59:14;19.82;48.05
70826;SHT31;58446;41.490;22.098;2023-03-11T10:01:44;19.97;47.26
70826;SHT31;58446;41.490;22.098;2023-03-11T10:04:35;19.94;48.14
70826;SHT31;58446;41.490;22.098;2023-03-11T10:07:11;19.58;47.63
70826;SHT31;58446;41.490;22.098;2023-03-11T10:09:47;19.01;47.86
70826;SHT31;58446;41.490;22.098;2023-03-11T10:15:34;18.91;49.47
70826;SHT31;58446;41.490;22.098;2023-03-11T10:21:17;19.07;48.66
70826;SHT31;58446;41.490;22.098;2023-03-11T10:24:06;19.39;50.13
70826;SHT31;58446;41.490;22.098;2023-03-11T10:26:50;19.83;47.50
70826;SHT31;58446;41.490;22.098;2023-03-11T10:29:29;19.63;47.22
70826;SHT31;58446;41.490;22.098;2023-03-11T10:32:19;19.52;46.48
70826;SHT31;58446;41.490;22.098;2023-03-11T10:34:55;19.61;46.71
70826;SHT31;58446;41.490;22.098;2023-03-11T10:37:26;19.75;46.49
70826;SHT31;58446;41.490;22.098;2023-03-11T10:39:54;19.78;45.52
70826;SHT31;58446;41.490;22.098;2023-03-11T10:42:23;19.83;45.16
70826;SHT31;58446;41.490;22.098;2023-03-11T10:44:49;19.90;45.11
70826;SHT31;58446;41.490;22.098;2023-03-11T10:47:21;19.97;44.79
70826;SHT31;58446;41.490;22.098;2023-03-11T10:49:47;20.03;44.91
70826;SHT31;58446;41.490;22.098;2023-03-11T10:52:13;20.03;43.92
70826;SHT31;58446;41.490;22.098;2023-03-11T10:54:43;20.09;43.72
70826;SHT31;58446;41.490;22.098;2023-03-11T10:57:33;20.09;42.14
70826;SHT31;58446;41.490;22.098;2023-03-11T11:00:00;20.14;42.77
70826;SHT31;58446;41.490;22.098;2023-03-11T11:02:29;20.14;42.48
70826;SHT31;58446;41.490;22.098;2023-03-11T11:07:47;19.80;40.59
70826;SHT31;58446;41.490;22.098;2023-03-11T11:10:20;19.75;42.33
70826;SHT31;58446;41.490;22.098;2023-03-11T11:13:02;19.72;41.39
70826;SHT31;58446;41.490;22.098;2023-03-11T11:15:51;19.65;41.91
70826;SHT31;58446;41.490;22.098;2023-03-11T11:18:28;19.61;41.36
70826;SHT31;58446;41.490;22.098;2023-03-11T11:21:12;19.62;41.54
70826;SHT31;58446;41.490;22.098;2023-03-11T11:26:37;19.39;41.73
70826;SHT31;58446;41.490;22.098;2023-03-11T11:31:35;19.24;41.66
70826;SHT31;58446;41.490;22.098;2023-03-11T11:34:01;19.24;41.66
70826;SHT31;58446;41.490;22.098;2023-03-11T11:36:34;19.18;41.99
70826;SHT31;58446;41.490;22.098;2023-03-11T11:39:11;19.07;41.76
70826;SHT31;58446;41.490;22.098;2023-03-11T11:41:41;19.04;42.27
70826;SHT31;58446;41.490;22.098;2023-03-11T11:44:12;19.11;42.05
70826;SHT31;58446;41.490;22.098;2023-03-11T11:47:17;19.14;41.50
70826;SHT31;58446;41.490;22.098;2023-03-11T11:49:51;19.19;41.72
70826;SHT31;58446;41.490;22.098;2023-03-11T11:52:22;19.29;41.85
70826;SHT31;58446;41.490;22.098;2023-03-11T11:54:57;19.25;41.65
70826;SHT31;58446;41.490;22.098;2023-03-11T11:57:23;19.19;41.67
70826;SHT31;58446;41.490;22.098;2023-03-11T11:59:49;19.07;41.68
70826;SHT31;58446;41.490;22.098;2023-03-11T12:08:22;18.98;42.35
70826;SHT31;58446;41.490;22.098;2023-03-11T12:11:10;18.98;42.26
70826;SHT31;58446;41.490;22.098;2023-03-11T12:16:47;18.98;42.60
70826;SHT31;58446;41.490;22.098;2023-03-11T12:25:00;19.01;43.22
70826;SHT31;58446;41.490;22.098;2023-03-11T12:27:31;19.01;43.48
70826;SHT31;58446;41.490;22.098;2023-03-11T12:30:02;19.00;44.05
70826;SHT31;58446;41.490;22.098;2023-03-11T12:32:42;19.07;43.74
70826;SHT31;58446;41.490;22.098;2023-03-11T12:37:59;19.04;43.15
70826;SHT31;58446;41.490;22.098;2023-03-11T12:43:23;18.96;42.89
70826;SHT31;58446;41.490;22.098;2023-03-11T12:45:51;18.91;43.20
70826;SHT31;58446;41.490;22.098;2023-03-11T12:48:34;18.84;43.31
70826;SHT31;58446;41.490;22.098;2023-03-11T12:51:01;18.66;42.91
70826;SHT31;58446;41.490;22.098;2023-03-11T12:53:46;18.55;43.34
70826;SHT31;58446;41.490;22.098;2023-03-11T13:01:45;18.30;43.68
70826;SHT31;58446;41.490;22.098;2023-03-11T13:09:34;18.24;43.62
70826;SHT31;58446;41.490;22.098;2023-03-11T13:11:59;18.19;43.74
70826;SHT31;58446;41.490;22.098;2023-03-11T13:14:30;18.15;43.73
70826;SHT31;58446;41.490;22.098;2023-03-11T13:17:24;18.16;43.99
70826;SHT31;58446;41.490;22.098;2023-03-11T13:19:55;18.10;43.90
70826;SHT31;58446;41.490;22.098;2023-03-11T13:28:05;18.05;44.72
70826;SHT31;58446;41.490;22.098;2023-03-11T13:30:40;17.99;45.29
70826;SHT31;58446;41.490;22.098;2023-03-11T13:33:28;17.87;45.86
70826;SHT31;58446;41.490;22.098;2023-03-11T13:41:29;17.53;47.58
70826;SHT31;58446;41.490;22.098;2023-03-11T13:44:02;17.38;47.94
70826;SHT31;58446;41.490;22.098;2023-03-11T13:46:36;17.38;47.89
70826;SHT31;58446;41.490;22.098;2023-03-11T13:51:49;17.31;47.78
70826;SHT31;58446;41.490;22.098;2023-03-11T13:56:56;17.23;48.35
70826;SHT31;58446;41.490;22.098;2023-03-11T13:59:27;17.19;48.30
70826;SHT31;58446;41.490;22.098;2023-03-11T14:01:59;17.13;48.26
70826;SHT31;58446;41.490;22.098;2023-03-11T14:04:32;17.20;48.33
70826;SHT31;58446;41.490;22.098;2023-03-11T14:07:21;17.15;48.40
70826;SHT31;58446;41.490;22.098;2023-03-11T14:09:48;17.16;48.72
70826;SHT31;58446;41.490;22.098;2023-03-11T14:12:14;17.15;48.50
70826;SHT31;58446;41.490;22.098;2023-03-11T14:14:55;17.26;48.64
70826;SHT31;58446;41.490;22.098;2023-03-11T14:17:23;17.26;48.27
70826;SHT31;58446;41.490;22.098;2023-03-11T14:22:47;17.23;48.31
70826;SHT31;58446;41.490;22.098;2023-03-11T14:25:17;17.24;48.16
70826;SHT31;58446;41.490;22.098;2023-03-11T14:27:53;17.24;48.47
70826;SHT31;58446;41.490;22.098;2023-03-11T14:30:25;17.26;48.23
70826;SHT31;58446;41.490;22.098;2023-03-11T14:33:01;17.20;48.58
70826;SHT31;58446;41.490;22.098;2023-03-11T14:35:29;17.17;48.49
70826;SHT31;58446;41.490;22.098;2023-03-11T14:37:55;17.17;48.78
70826;SHT31;58446;41.490;22.098;2023-03-11T14:40:35;17.22;48.97
70826;SHT31;58446;41.490;22.098;2023-03-11T14:43:07;17.22;48.81
70826;SHT31;58446;41.490;22.098;2023-03-11T14:45:34;17.19;48.86
70826;SHT31;58446;41.490;22.098;2023-03-11T14:48:22;17.23;48.59
70826;SHT31;58446;41.490;22.098;2023-03-11T14:50:49;17.20;48.57
70826;SHT31;58446;41.490;22.098;2023-03-11T14:53:39;17.17;48.95
70826;SHT31;58446;41.490;22.098;2023-03-11T14:56:12;17.15;49.02
70826;SHT31;58446;41.490;22.098;2023-03-11T14:58:47;17.15;48.83
70826;SHT31;58446;41.490;22.098;2023-03-11T15:01:22;17.15;48.75
70826;SHT31;58446;41.490;22.098;2023-03-11T15:03:56;17.19;48.91
70826;SHT31;58446;41.490;22.098;2023-03-11T15:06:33;17.19;48.70
70826;SHT31;58446;41.490;22.098;2023-03-11T15:09:14;17.16;48.91
70826;SHT31;58446;41.490;22.098;2023-03-11T15:14:32;17.09;49.03
70826;SHT31;58446;41.490;22.098;2023-03-11T15:17:15;17.03;49.17
70826;SHT31;58446;41.490;22.098;2023-03-11T15:19:42;17.05;49.06
70826;SHT31;58446;41.490;22.098;2023-03-11T15:24:55;16.95;49.58
70826;SHT31;58446;41.490;22.098;2023-03-11T15:27:32;16.98;49.54
70826;SHT31;58446;41.490;22.098;2023-03-11T15:29:59;16.96;49.71
70826;SHT31;58446;41.490;22.098;2023-03-11T15:37:38;16.93;49.86
70826;SHT31;58446;41.490;22.098;2023-03-11T15:40:23;16.93;49.71
70826;SHT31;58446;41.490;22.098;2023-03-11T15:43:26;16.98;50.16
70826;SHT31;58446;41.490;22.098;2023-03-11T15:45:51;16.99;49.95
70826;SHT31;58446;41.490;22.098;2023-03-11T15:48:20;16.80;50.54
70826;SHT31;58446;41.490;22.098;2023-03-11T15:50:54;16.78;50.32
70826;SHT31;58446;41.490;22.098;2023-03-11T15:53:21;16.76;50.45
70826;SHT31;58446;41.490;22.098;2023-03-11T15:55:47;16.72;50.42
70826;SHT31;58446;41.490;22.098;2023-03-11T15:58:16;16.78;50.38
70826;SHT31;58446;41.490;22.098;2023-03-11T16:00:50;16.75;49.63
70826;SHT31;58446;41.490;22.098;2023-03-11T16:03:17;16.79;50.18
70826;SHT31;58446;41.490;22.098;2023-03-11T16:05:43;16.79;49.98
70826;SHT31;58446;41.490;22.098;2023-03-11T16:08:09;16.78;49.66
70826;SHT31;58446;41.490;22.098;2023-03-11T16:10:35;16.76;50.09
70826;SHT31;58446;41.490;22.098;2023-03-11T16:13:01;16.78;50.20
70826;SHT31;58446;41.490;22.098;2023-03-11T16:15:30;16.80;50.17
70826;SHT31;58446;41.490;22.098;2023-03-11T16:18:00;16.76;50.17
70826;SHT31;58446;41.490;22.098;2023-03-11T16:20:29;16.78;50.47
70826;SHT31;58446;41.490;22.098;2023-03-11T16:22:58;16.75;50.46
70826;SHT31;58446;41.490;22.098;2023-03-11T16:27:53;16.75;51.00
70826;SHT31;58446;41.490;22.098;2023-03-11T16:30:20;16.75;51.30
70826;SHT31;58446;41.490;22.098;2023-03-11T16:32:45;16.73;51.29
70826;SHT31;58446;41.490;22.098;2023-03-11T16:35:11;16.67;51.66
70826;SHT31;58446;41.490;22.098;2023-03-11T16:37:37;16.67;51.95
70826;SHT31;58446;41.490;22.098;2023-03-11T16:40:05;16.67;52.09
70826;SHT31;58446;41.490;22.098;2023-03-11T16:42:32;16.64;52.40
70826;SHT31;58446;41.490;22.098;2023-03-11T16:44:58;16.57;52.49
70826;SHT31;58446;41.490;22.098;2023-03-11T16:47:23;16.58;52.41
70826;SHT31;58446;41.490;22.098;2023-03-11T16:49:49;16.57;52.53
70826;SHT31;58446;41.490;22.098;2023-03-11T16:52:19;16.62;52.69